Time;durP1;ratioP1;P1;durP2;ratioP2;P2;SDS_P1;SDS_P2;PMS_P1;PMS_P2;Temp;Humidity;BMP_temperature;BMP_pressure;BME280_temperature;BME280_humidity;BME280_pressure;Samples;Min_cycle;Max_cycle;Signal;HPM_P1;HPM_P2
2021/12/14 00:01:25;;;;;;;18.08;11.70;;;8.70;99.90;;;;;;4800326;29;20095;-80
2021/12/14 00:03:57;;;;;;;16.33;11.55;;;8.70;99.90;;;;;;4833034;29;20473;-80
2021/12/14 00:06:24;;;;;;;16.48;11.50;;;8.70;99.90;;;;;;4818458;29;20054;-79
2021/12/14 00:09:02;;;;;;;13.45;10.15;;;8.60;99.90;;;;;;4817170;29;20085;-79
2021/12/14 00:11:48;;;;;;;15.77;11.00;;;8.60;99.90;;;;;;4817169;29;20042;-80
2021/12/14 00:17:08;;;;;;;17.02;11.23;;;8.70;99.90;;;;;;4817750;29;20127;-79
2021/12/14 00:19:34;;;;;;;16.33;11.25;;;8.60;99.90;;;;;;4817708;29;20151;-80
2021/12/14 00:22:06;;;;;;;16.92;11.15;;;8.70;99.90;;;;;;4818578;29;20124;-80
2021/12/14 00:24:33;;;;;;;16.25;11.38;;;8.60;99.90;;;;;;4818670;29;20046;-79
2021/12/14 00:27:03;;;;;;;16.38;10.98;;;8.60;99.90;;;;;;4817796;29;20060;-80
2021/12/14 00:29:51;;;;;;;15.80;11.15;;;8.60;99.90;;;;;;4817425;29;20118;-80
2021/12/14 00:32:20;;;;;;;14.93;11.10;;;8.60;99.90;;;;;;4817534;29;20054;-80
2021/12/14 00:34:49;;;;;;;14.60;10.55;;;8.60;99.90;;;;;;4817970;29;20057;-80
2021/12/14 00:37:19;;;;;;;13.93;11.32;;;8.60;99.90;;;;;;4817173;29;20069;-80
2021/12/14 00:39:47;;;;;;;15.60;11.25;;;8.60;99.90;;;;;;4818109;29;20046;-80
2021/12/14 00:42:13;;;;;;;15.75;10.82;;;8.60;99.90;;;;;;4818220;29;20512;-80
2021/12/14 00:44:40;;;;;;;16.02;11.65;;;8.70;99.90;;;;;;4816215;29;20496;-80
2021/12/14 00:47:05;;;;;;;;;;;8.70;99.90;;;;;;4819932;29;20046;-80
2021/12/14 00:49:32;;;;;;;15.30;10.52;;;8.70;99.90;;;;;;4815850;29;19929;-80
2021/12/14 00:51:59;;;;;;;16.33;11.25;;;8.60;99.90;;;;;;4816244;29;20480;-80
2021/12/14 00:54:25;;;;;;;15.32;10.63;;;8.70;99.90;;;;;;4817372;29;20049;-80
2021/12/14 00:56:51;;;;;;;15.52;10.13;;;8.70;99.90;;;;;;4818168;29;20054;-80
2021/12/14 00:59:19;;;;;;;;;;;8.60;99.90;;;;;;4817067;29;20081;-79
2021/12/14 01:01:56;;;;;;;14.35;10.88;;;8.70;99.90;;;;;;4802644;29;20407;-79
2021/12/14 01:04:27;;;;;;;16.38;10.32;;;8.60;99.90;;;;;;4817972;29;20382;-80
2021/12/14 01:06:54;;;;;;;16.48;11.57;;;8.60;99.90;;;;;;4831392;29;20058;-80
2021/12/14 01:09:24;;;;;;;14.18;10.88;;;8.60;99.90;;;;;;4803919;29;20061;-80
2021/12/14 01:11:52;;;;;;;14.32;10.98;;;8.60;99.90;;;;;;4810483;29;20054;-79
2021/12/14 01:14:41;;;;;;;13.10;9.88;;;8.60;99.90;;;;;;4818246;29;20108;-79
2021/12/14 01:17:25;;;;;;;16.15;11.75;;;8.60;99.90;;;;;;4811498;29;20145;-79
2021/12/14 01:19:57;;;;;;;14.68;10.35;;;8.60;99.90;;;;;;4821717;29;20058;-79
2021/12/14 01:22:38;;;;;;;16.27;11.45;;;8.50;99.90;;;;;;4820023;29;20122;-79
2021/12/14 01:25:13;;;;;;;15.02;11.38;;;8.50;99.90;;;;;;4820811;29;20046;-81
2021/12/14 01:27:53;;;;;;;16.85;11.10;;;8.50;99.90;;;;;;4834566;29;20567;-80
2021/12/14 01:30:29;;;;;;;13.93;11.25;;;8.50;99.90;;;;;;4849827;29;20124;-80
2021/12/14 01:33:01;;;;;;;16.23;11.57;;;8.50;99.90;;;;;;4823467;29;20110;-80
2021/12/14 01:35:30;;;;;;;15.55;11.43;;;8.50;99.90;;;;;;4820566;29;20054;-80
2021/12/14 01:38:04;;;;;;;16.63;11.38;;;8.50;99.90;;;;;;4833577;29;20045;-80
2021/12/14 01:40:54;;;;;;;17.17;12.15;;;8.50;99.90;;;;;;4823081;29;20126;-80
2021/12/14 01:43:50;;;;;;;17.35;12.65;;;8.50;99.90;;;;;;4823578;29;20113;-80
2021/12/14 01:46:38;;;;;;;16.92;11.32;;;8.50;99.90;;;;;;4827702;29;20035;-78
2021/12/14 01:49:07;;;;;;;15.32;11.40;;;8.50;99.90;;;;;;4819423;29;20042;-79
2021/12/14 01:51:38;;;;;;;17.35;11.75;;;8.50;99.90;;;;;;4820864;29;20038;-79
2021/12/14 01:54:06;;;;;;;16.02;11.60;;;8.50;99.90;;;;;;4817799;29;20187;-79
2021/12/14 01:56:33;;;;;;;16.45;12.43;;;8.50;99.90;;;;;;4808162;29;20047;-80
2021/12/14 01:59:35;;;;;;;21.35;13.48;;;8.50;99.90;;;;;;4807166;29;20047;-80
2021/12/14 02:04:46;;;;;;;17.60;12.10;;;8.50;99.90;;;;;;4828102;29;20054;-79
2021/12/14 02:07:15;;;;;;;17.23;12.52;;;8.50;99.90;;;;;;4829426;29;20073;-80
2021/12/14 02:09:41;;;;;;;19.33;13.80;;;8.50;99.90;;;;;;4836076;29;20073;-78
2021/12/14 02:12:13;;;;;;;18.23;12.55;;;8.50;99.90;;;;;;4810577;29;20042;-79
2021/12/14 02:14:39;;;;;;;16.08;12.32;;;8.50;99.90;;;;;;4833402;29;20042;-79
2021/12/14 02:17:09;;;;;;;19.10;14.10;;;8.50;99.90;;;;;;4814415;29;20055;-79
2021/12/14 02:19:35;;;;;;;18.25;13.63;;;8.50;99.90;;;;;;4826779;29;20054;-79
2021/12/14 02:22:03;;;;;;;18.42;13.45;;;8.50;99.90;;;;;;4837171;29;20054;-79
2021/12/14 02:24:30;;;;;;;18.05;13.60;;;8.50;99.90;;;;;;4829930;29;20123;-79
2021/12/14 02:26:57;;;;;;;18.83;13.95;;;8.60;99.90;;;;;;4818489;29;20087;-79
2021/12/14 02:29:27;;;;;;;20.58;14.23;;;8.60;99.90;;;;;;4830130;29;20085;-79
2021/12/14 02:32:06;;;;;;;19.35;15.20;;;8.60;99.90;;;;;;4827907;29;20473;-79
2021/12/14 02:34:41;;;;;;;21.27;14.88;;;8.60;99.90;;;;;;4824731;29;20046;-79
2021/12/14 02:37:09;;;;;;;22.35;15.30;;;8.50;99.90;;;;;;4808236;29;20099;-78
2021/12/14 02:42:06;;;;;;;21.92;15.77;;;8.50;99.90;;;;;;4824321;29;20429;-80
2021/12/14 02:44:32;;;;;;;20.90;15.43;;;8.50;99.90;;;;;;4834236;29;20064;-79
2021/12/14 02:47:03;;;;;;;19.20;14.45;;;8.40;99.90;;;;;;4805443;29;20516;-79
2021/12/14 02:49:32;;;;;;;21.67;15.95;;;8.40;99.90;;;;;;4820907;29;20050;-79
2021/12/14 02:52:06;;;;;;;22.30;15.70;;;8.40;99.90;;;;;;4832464;29;20047;-80
2021/12/14 02:54:38;;;;;;;22.73;15.55;;;8.40;99.90;;;;;;4832341;29;20081;-80
2021/12/14 02:57:09;;;;;;;22.33;16.38;;;8.40;99.90;;;;;;4823942;29;20138;-80
2021/12/14 02:59:38;;;;;;;21.98;16.40;;;8.40;99.90;;;;;;4801061;29;20549;-80
2021/12/14 03:02:09;;;;;;;21.45;15.88;;;8.40;99.90;;;;;;4803842;29;20045;-78
2021/12/14 03:04:44;;;;;;;23.10;16.55;;;8.40;99.90;;;;;;4822740;29;20049;-79
2021/12/14 03:07:12;;;;;;;22.38;16.48;;;8.40;99.90;;;;;;4818790;29;20055;-79
2021/12/14 03:12:30;;;;;;;23.80;16.90;;;8.40;99.90;;;;;;4824034;29;20046;-79
2021/12/14 03:15:17;;;;;;;22.80;17.33;;;8.30;99.90;;;;;;4823452;29;20558;-79
2021/12/14 03:17:45;;;;;;;21.75;15.75;;;8.40;99.90;;;;;;4837107;29;20046;-79
2021/12/14 03:20:15;;;;;;;22.33;16.40;;;8.40;99.90;;;;;;4822607;29;20493;-78
2021/12/14 03:22:52;;;;;;;20.45;15.40;;;8.40;99.90;;;;;;4820220;29;20627;-79
2021/12/14 03:25:20;;;;;;;24.80;17.27;;;8.40;99.90;;;;;;4833174;29;20041;-79
2021/12/14 03:27:48;;;;;;;25.45;17.67;;;8.30;99.90;;;;;;4812549;29;20053;-79
2021/12/14 03:30:26;;;;;;;23.48;17.73;;;8.40;99.90;;;;;;4822954;29;20064;-79
2021/12/14 03:32:55;;;;;;;22.88;16.85;;;8.40;99.90;;;;;;4828384;29;20053;-79
2021/12/14 03:35:55;;;;;;;24.42;17.35;;;8.30;99.90;;;;;;4839354;29;20734;-79
2021/12/14 03:38:31;;;;;;;21.80;16.63;;;8.40;99.90;;;;;;4826052;29;20054;-79
2021/12/14 03:41:11;;;;;;;22.08;16.67;;;8.30;99.90;;;;;;4821372;29;20133;-79
2021/12/14 03:43:40;;;;;;;23.52;17.20;;;8.40;99.90;;;;;;4834269;29;20050;-79
2021/12/14 03:46:07;;;;;;;25.60;17.92;;;8.40;99.90;;;;;;4826672;29;20408;-80
2021/12/14 03:48:34;;;;;;;24.60;17.98;;;8.40;99.90;;;;;;4803425;29;20054;-79
2021/12/14 03:51:01;;;;;;;24.25;17.75;;;8.40;99.90;;;;;;4788453;29;20053;-80
2021/12/14 03:53:27;;;;;;;25.95;18.42;;;8.40;99.90;;;;;;4827968;29;20053;-79
2021/12/14 03:55:59;;;;;;;23.92;17.52;;;8.40;99.90;;;;;;4834133;29;20057;-79
2021/12/14 03:58:33;;;;;;;24.55;17.98;;;8.40;99.90;;;;;;4826156;29;20500;-80
2021/12/14 04:01:05;;;;;;;26.65;18.70;;;8.40;99.90;;;;;;4819803;29;20058;-80
2021/12/14 04:03:31;;;;;;;24.92;17.60;;;8.40;99.90;;;;;;4823634;29;20046;-79
2021/12/14 04:05:57;;;;;;;24.88;17.85;;;8.40;99.90;;;;;;4837830;29;20198;-80
2021/12/14 04:08:25;;;;;;;22.73;17.48;;;8.40;99.90;;;;;;4821434;29;20046;-79
2021/12/14 04:10:54;;;;;;;23.60;17.52;;;8.40;99.90;;;;;;4819893;29;20055;-80
2021/12/14 04:13:24;;;;;;;25.48;17.73;;;8.40;99.90;;;;;;4821238;29;20181;-80
2021/12/14 04:15:51;;;;;;;24.77;17.85;;;8.40;99.90;;;;;;4829003;29;20528;-79
2021/12/14 04:18:17;;;;;;;;;;;8.40;99.90;;;;;;4815475;29;20055;-81
2021/12/14 04:20:45;;;;;;;23.73;17.05;;;8.40;99.90;;;;;;4811932;29;19928;-79
2021/12/14 04:23:16;;;;;;;26.85;18.63;;;8.40;99.90;;;;;;4824646;29;20194;-80
2021/12/14 04:25:43;;;;;;;26.52;19.13;;;8.40;99.90;;;;;;4820366;29;20078;-79
2021/12/14 04:28:12;;;;;;;22.95;17.70;;;8.40;99.90;;;;;;4804439;29;20113;-79
2021/12/14 04:30:38;;;;;;;24.83;18.27;;;8.40;99.90;;;;;;4821602;29;20404;-79
2021/12/14 04:33:08;;;;;;;26.27;19.05;;;8.40;99.90;;;;;;4812100;29;20057;-80
2021/12/14 04:35:37;;;;;;;23.95;18.27;;;8.40;99.90;;;;;;4821392;29;20065;-80
2021/12/14 04:38:11;;;;;;;29.15;19.02;;;8.40;99.90;;;;;;4800138;29;20123;-80
2021/12/14 04:51:57;;;;;;;25.58;18.65;;;8.40;99.90;;;;;;4824696;29;20139;-80
2021/12/14 04:51:58;;;;;;;27.60;19.08;;;8.40;99.90;;;;;;4835690;29;20087;-80
2021/12/14 04:54:30;;;;;;;25.98;18.83;;;8.40;99.90;;;;;;4833843;29;20050;-80
2021/12/14 04:56:58;;;;;;;27.75;19.13;;;8.30;99.90;;;;;;4816121;29;20064;-80
2021/12/14 04:59:29;;;;;;;24.08;17.38;;;8.20;99.90;;;;;;4821493;29;20046;-79
2021/12/14 05:02:12;;;;;;;29.00;19.00;;;8.20;99.90;;;;;;4819555;29;20099;-79
2021/12/14 05:04:38;;;;;;;28.63;19.60;;;8.20;99.90;;;;;;4817538;29;20041;-79
2021/12/14 05:07:24;;;;;;;23.08;17.90;;;8.20;99.90;;;;;;4819560;29;20042;-80
2021/12/14 05:09:50;;;;;;;28.67;19.50;;;8.20;99.90;;;;;;4825383;29;20050;-82
2021/12/14 05:12:18;;;;;;;;;;;8.20;99.90;;;;;;4809957;29;20376;-82
2021/12/14 05:14:45;;;;;;;28.25;18.88;;;8.20;99.90;;;;;;4825514;29;19920;-82
2021/12/14 05:17:17;;;;;;;24.00;18.08;;;8.20;99.90;;;;;;4820378;29;20050;-82
2021/12/14 05:19:45;;;;;;;26.90;19.63;;;8.20;99.90;;;;;;4827982;29;20133;-82
2021/12/14 05:22:19;;;;;;;28.20;19.83;;;8.20;99.90;;;;;;4821004;29;20519;-82
2021/12/14 05:24:49;;;;;;;30.08;20.73;;;8.20;99.90;;;;;;4815950;29;20400;-79
2021/12/14 05:27:27;;;;;;;28.42;20.63;;;8.20;99.90;;;;;;4792652;29;20170;-79
2021/12/14 05:29:53;;;;;;;28.67;19.38;;;8.20;99.90;;;;;;4819557;29;20416;-79
2021/12/14 05:32:20;;;;;;;29.55;20.85;;;8.20;99.90;;;;;;4823657;29;20054;-78
2021/12/14 05:34:49;;;;;;;33.30;21.20;;;8.20;99.90;;;;;;4804787;29;20110;-78
2021/12/14 05:37:26;;;;;;;27.77;20.05;;;8.20;99.90;;;;;;4837004;29;20054;-79
2021/12/14 05:39:58;;;;;;;26.08;19.27;;;8.10;99.90;;;;;;4818220;29;20038;-79
2021/12/14 05:45:11;;;;;;;28.52;19.73;;;8.10;99.90;;;;;;4836264;29;20541;-79
2021/12/14 05:47:50;;;;;;;29.75;19.20;;;8.10;99.90;;;;;;4818517;29;20050;-79
2021/12/14 05:50:25;;;;;;;29.05;21.10;;;8.10;99.90;;;;;;4807726;29;20393;-78
2021/12/14 05:52:50;;;;;;;26.73;19.48;;;8.10;99.90;;;;;;4806246;29;20481;-78
2021/12/14 05:55:23;;;;;;;27.52;19.88;;;8.10;99.90;;;;;;4820151;29;20086;-79
2021/12/14 05:57:48;;;;;;;31.25;20.80;;;8.10;99.90;;;;;;4828601;29;20351;-79
2021/12/14 06:00:16;;;;;;;27.00;19.88;;;8.10;99.90;;;;;;4815058;29;20049;-79
2021/12/14 06:02:42;;;;;;;26.33;18.88;;;8.10;99.90;;;;;;4821137;29;20102;-78
2021/12/14 06:05:13;;;;;;;35.03;21.70;;;8.10;99.90;;;;;;4822464;29;20047;-79
2021/12/14 06:07:39;;;;;;;28.60;20.38;;;8.10;99.90;;;;;;4818857;29;20046;-78
2021/12/14 06:10:05;;;;;;;28.15;20.13;;;8.10;99.90;;;;;;4818616;29;20051;-78
2021/12/14 06:12:33;;;;;;;28.38;20.83;;;8.10;99.90;;;;;;4820015;29;20102;-78
2021/12/14 06:15:02;;;;;;;26.95;20.35;;;8.20;99.90;;;;;;4817701;29;20051;-79
2021/12/14 06:17:34;;;;;;;31.10;22.60;;;8.20;99.90;;;;;;4820578;29;20557;-78
2021/12/14 06:20:01;;;;;;;27.92;20.30;;;8.20;99.90;;;;;;4817700;29;20142;-79
2021/12/14 06:22:27;;;;;;;29.90;21.20;;;8.20;99.90;;;;;;4820713;29;20051;-78
2021/12/14 06:24:59;;;;;;;29.55;20.85;;;8.20;99.90;;;;;;4802933;29;20039;-78
2021/12/14 06:27:27;;;;;;;31.92;21.55;;;8.20;99.90;;;;;;4826155;29;20133;-78
2021/12/14 06:29:57;;;;;;;29.38;21.15;;;8.20;99.90;;;;;;4829481;29;20043;-78
2021/12/14 06:32:26;;;;;;;29.67;21.05;;;8.20;99.90;;;;;;4854159;29;20068;-79
2021/12/14 06:34:55;;;;;;;30.77;22.00;;;8.20;99.90;;;;;;4824809;29;20051;-78
2021/12/14 06:37:31;;;;;;;30.15;21.75;;;8.20;99.90;;;;;;4821111;29;20046;-79
2021/12/14 06:40:08;;;;;;;34.53;22.90;;;8.10;99.90;;;;;;4805984;29;20057;-79
2021/12/14 06:42:38;;;;;;;33.78;23.58;;;8.20;99.90;;;;;;4822719;29;20049;-79
2021/12/14 06:45:09;;;;;;;32.13;22.65;;;8.20;99.90;;;;;;4824017;29;20031;-79
2021/12/14 06:47:35;;;;;;;33.25;23.27;;;8.20;99.90;;;;;;4808768;29;20051;-78
2021/12/14 06:50:05;;;;;;;28.58;21.00;;;8.20;99.90;;;;;;4814186;29;20123;-78
2021/12/14 06:52:30;;;;;;;35.05;22.58;;;8.20;99.90;;;;;;4811418;29;20046;-79
2021/12/14 06:54:56;;;;;;;37.65;24.02;;;8.20;99.90;;;;;;4824304;29;20137;-81
2021/12/14 06:57:22;;;;;;;32.40;23.55;;;8.20;99.90;;;;;;4809580;29;20045;-81
2021/12/14 06:59:48;;;;;;;33.92;23.77;;;8.20;99.90;;;;;;4839016;29;20042;-80
2021/12/14 07:02:14;;;;;;;36.78;23.77;;;8.20;99.90;;;;;;4805258;29;20043;-80
2021/12/14 07:04:47;;;;;;;31.38;22.80;;;8.20;99.90;;;;;;4822242;29;20111;-79
2021/12/14 07:07:14;;;;;;;38.45;23.90;;;8.20;99.90;;;;;;4813242;29;20390;-80
2021/12/14 07:09:43;;;;;;;30.65;21.65;;;8.20;99.90;;;;;;4819230;29;20070;-79
2021/12/14 07:12:12;;;;;;;33.78;23.83;;;8.20;99.90;;;;;;4823430;29;20133;-80
2021/12/14 07:15:11;;;;;;;35.10;23.90;;;8.20;99.90;;;;;;4841382;29;20066;-80
2021/12/14 07:17:44;;;;;;;34.35;24.00;;;8.20;99.90;;;;;;4823145;29;20038;-77
2021/12/14 07:20:21;;;;;;;33.05;23.30;;;8.20;99.90;;;;;;4822036;29;20066;-80
2021/12/14 07:23:03;;;;;;;36.40;23.48;;;8.20;99.90;;;;;;4821154;29;20114;-80
2021/12/14 07:25:33;;;;;;;32.88;23.00;;;8.20;99.90;;;;;;4806508;29;20045;-81
2021/12/14 07:28:17;;;;;;;34.20;23.15;;;8.20;99.90;;;;;;4840813;29;20052;-80
2021/12/14 07:30:53;;;;;;;30.08;21.42;;;8.20;99.90;;;;;;4814725;29;20121;-80
2021/12/14 07:33:23;;;;;;;36.40;24.50;;;8.20;99.90;;;;;;4821662;29;20050;-80
2021/12/14 07:36:18;;;;;;;32.85;23.42;;;8.20;99.90;;;;;;4822840;29;20054;-81
2021/12/14 07:38:51;;;;;;;32.67;22.25;;;8.20;99.90;;;;;;4816186;29;20063;-81
2021/12/14 07:41:30;;;;;;;34.90;24.53;;;8.20;99.90;;;;;;4819630;29;20047;-81
2021/12/14 07:44:20;;;;;;;34.05;23.58;;;8.20;99.90;;;;;;4826942;29;20058;-81
2021/12/14 07:46:49;;;;;;;37.75;24.13;;;8.10;99.90;;;;;;4829072;29;20493;-81
2021/12/14 07:49:35;;;;;;;37.10;24.90;;;8.10;99.90;;;;;;4835893;29;20070;-81
2021/12/14 07:52:10;;;;;;;36.17;23.75;;;8.20;99.90;;;;;;4821372;29;20054;-81
2021/12/14 07:54:55;;;;;;;37.78;25.15;;;8.10;99.90;;;;;;4823702;29;20046;-80
2021/12/14 07:57:26;;;;;;;32.50;23.10;;;8.20;99.90;;;;;;4834425;29;20500;-80
2021/12/14 08:00:05;;;;;;;36.55;24.10;;;8.10;99.90;;;;;;4807070;29;20045;-80
2021/12/14 08:02:40;;;;;;;36.38;25.00;;;8.10;99.90;;;;;;4814654;29;20049;-79
2021/12/14 08:05:23;;;;;;;36.63;24.55;;;8.20;99.90;;;;;;4822703;29;20066;-77
2021/12/14 08:07:59;;;;;;;37.10;24.52;;;8.20;99.90;;;;;;4826096;29;20085;-78
2021/12/14 08:10:33;;;;;;;41.63;25.50;;;8.20;99.90;;;;;;4822307;29;20058;-79
2021/12/14 08:13:09;;;;;;;39.17;25.55;;;8.20;99.90;;;;;;4820116;29;20813;-79
2021/12/14 08:15:53;;;;;;;40.90;26.20;;;8.20;99.90;;;;;;4819776;29;20081;-79
2021/12/14 08:18:25;;;;;;;37.95;25.23;;;8.20;99.90;;;;;;4820778;29;20500;-79
2021/12/14 08:20:58;;;;;;;35.60;23.83;;;8.30;99.90;;;;;;4826628;29;20136;-79
2021/12/14 08:23:26;;;;;;;37.65;25.95;;;8.30;99.90;;;;;;4820163;29;20593;-78
2021/12/14 08:25:59;;;;;;;38.60;25.33;;;8.20;99.90;;;;;;4806908;29;20047;-79
2021/12/14 08:28:25;;;;;;;37.58;24.95;;;8.30;99.90;;;;;;4827212;29;20528;-78
2021/12/14 08:31:05;;;;;;;35.47;24.10;;;8.30;99.90;;;;;;4830025;29;20038;-78
2021/12/14 08:33:32;;;;;;;40.15;25.90;;;8.30;99.90;;;;;;4806484;29;20053;-79
2021/12/14 08:36:02;;;;;;;38.10;25.15;;;8.30;99.90;;;;;;4801749;29;20053;-79
2021/12/14 08:38:32;;;;;;;41.47;26.52;;;8.30;99.90;;;;;;4819343;29;20061;-79
2021/12/14 08:41:08;;;;;;;39.83;26.38;;;8.30;99.90;;;;;;4830086;29;20130;-78
2021/12/14 08:43:35;;;;;;;39.58;26.52;;;8.30;99.90;;;;;;4823046;29;20098;-78
2021/12/14 08:46:13;;;;;;;38.60;26.02;;;8.30;99.90;;;;;;4811898;29;20430;-79
2021/12/14 08:48:53;;;;;;;37.92;24.75;;;8.40;99.90;;;;;;4831909;29;20051;-78
2021/12/14 08:51:30;;;;;;;37.63;25.85;;;8.40;99.90;;;;;;4818949;29;20057;-79
2021/12/14 08:53:59;;;;;;;41.35;26.35;;;8.30;99.90;;;;;;4815905;29;20062;-78
2021/12/14 08:56:28;;;;;;;37.15;24.40;;;8.40;99.90;;;;;;4821644;29;20077;-78
2021/12/14 08:58:54;;;;;;;38.15;24.30;;;8.40;99.90;;;;;;4825603;29;20050;-79
2021/12/14 09:01:25;;;;;;;40.28;25.48;;;8.40;99.90;;;;;;4817859;29;20059;-79
2021/12/14 09:03:56;;;;;;;37.08;23.90;;;8.40;99.90;;;;;;4813726;29;20129;-79
2021/12/14 09:06:30;;;;;;;37.70;25.10;;;8.40;99.90;;;;;;4804340;29;20034;-78
2021/12/14 09:09:00;;;;;;;38.47;25.52;;;8.40;99.90;;;;;;4804033;29;20046;-78
2021/12/14 09:11:30;;;;;;;39.58;25.38;;;8.40;99.90;;;;;;4818077;29;20047;-79
2021/12/14 09:13:57;;;;;;;36.05;23.63;;;8.40;99.90;;;;;;4819037;29;20050;-79
2021/12/14 09:16:27;;;;;;;35.80;22.15;;;8.40;99.90;;;;;;4834671;29;20057;-79
2021/12/14 09:19:02;;;;;;;34.90;23.50;;;8.40;99.90;;;;;;4822985;29;20065;-79
2021/12/14 09:21:49;;;;;;;36.33;23.65;;;8.40;99.90;;;;;;4821297;29;20050;-79
2021/12/14 09:24:19;;;;;;;35.72;23.27;;;8.40;99.90;;;;;;4828307;29;20042;-79
2021/12/14 09:26:47;;;;;;;39.00;25.10;;;8.40;99.90;;;;;;4804598;29;20121;-78
2021/12/14 09:29:16;;;;;;;38.97;26.45;;;8.50;99.90;;;;;;4829096;29;20098;-77
2021/12/14 09:31:46;;;;;;;36.60;25.00;;;8.50;99.90;;;;;;4819582;29;20070;-78
2021/12/14 09:34:15;;;;;;;40.17;26.45;;;8.50;99.90;;;;;;4809553;29;20445;-78
2021/12/14 09:36:41;;;;;;;35.92;25.30;;;8.60;99.90;;;;;;4803295;29;20043;-78
2021/12/14 09:39:11;;;;;;;40.92;26.80;;;8.60;99.90;;;;;;4802190;29;20122;-78
2021/12/14 09:41:39;;;;;;;41.30;26.23;;;8.60;99.90;;;;;;4801644;29;20069;-78
2021/12/14 09:44:09;;;;;;;37.55;24.65;;;8.60;99.90;;;;;;4816218;29;20682;-78
2021/12/14 09:46:37;;;;;;;38.05;25.20;;;8.60;99.90;;;;;;4824606;29;20106;-78
2021/12/14 09:49:06;;;;;;;41.67;26.48;;;8.60;99.90;;;;;;4826943;29;20035;-79
2021/12/14 09:51:59;;;;;;;39.28;25.88;;;8.60;99.90;;;;;;4806007;29;20050;-79
2021/12/14 09:54:27;;;;;;;38.25;24.85;;;8.70;99.90;;;;;;4804865;29;20050;-79
2021/12/14 09:57:02;;;;;;;39.58;25.15;;;8.70;99.90;;;;;;4824445;29;20086;-79
2021/12/14 09:59:28;;;;;;;42.80;26.13;;;8.60;99.90;;;;;;4835291;29;20054;-81
2021/12/14 10:02:28;;;;;;;39.92;26.27;;;8.70;99.90;;;;;;4818081;29;20731;-80
2021/12/14 10:04:57;;;;;;;37.17;24.58;;;8.70;99.90;;;;;;4808405;29;20069;-80
2021/12/14 10:07:25;;;;;;;35.22;24.50;;;8.60;99.90;;;;;;4815692;29;20092;-80
2021/12/14 10:09:54;;;;;;;39.70;26.00;;;8.60;99.90;;;;;;4817086;29;20102;-80
2021/12/14 10:12:49;;;;;;;38.90;26.75;;;8.60;99.90;;;;;;4821124;29;20163;-80
2021/12/14 10:15:47;;;;;;;37.88;25.10;;;8.60;99.90;;;;;;4821265;29;20122;-80
2021/12/14 10:18:25;;;;;;;37.28;24.58;;;8.60;99.90;;;;;;4833209;29;20117;-80
2021/12/14 10:21:11;;;;;;;36.30;24.30;;;8.60;99.90;;;;;;4823149;29;20065;-80
2021/12/14 10:23:40;;;;;;;39.50;26.95;;;8.60;99.90;;;;;;4851651;29;20058;-81
2021/12/14 10:26:08;;;;;;;38.58;26.58;;;8.60;99.90;;;;;;4827383;29;20050;-80
2021/12/14 10:28:37;;;;;;;38.50;24.90;;;8.60;99.90;;;;;;4821504;29;20042;-80
2021/12/14 10:31:07;;;;;;;40.47;25.70;;;8.60;99.90;;;;;;4822051;29;20079;-80
2021/12/14 10:33:34;;;;;;;39.88;25.73;;;8.60;99.90;;;;;;4813953;29;20054;-80
2021/12/14 10:36:11;;;;;;;34.95;23.33;;;8.60;99.90;;;;;;4820905;29;20471;-79
2021/12/14 10:38:50;;;;;;;36.97;24.10;;;8.60;99.90;;;;;;4820770;29;20066;-80
2021/12/14 10:44:06;;;;;;;34.45;23.25;;;8.70;99.90;;;;;;4827394;29;20050;-79
2021/12/14 10:46:36;;;;;;;36.80;24.15;;;8.70;99.90;;;;;;4796761;29;20052;-79
2021/12/14 10:49:03;;;;;;;33.70;23.15;;;8.70;99.90;;;;;;4825135;29;20057;-79
2021/12/14 10:51:36;;;;;;;33.97;22.58;;;8.70;99.90;;;;;;4824502;29;20050;-80
2021/12/14 10:54:04;;;;;;;32.90;22.42;;;8.70;99.90;;;;;;4842144;29;20049;-79
2021/12/14 10:56:44;;;;;;;35.05;22.40;;;8.70;99.90;;;;;;4816209;29;20074;-79
2021/12/14 10:59:12;;;;;;;31.00;20.65;;;8.80;99.90;;;;;;4813579;29;20524;-79
2021/12/14 11:01:39;;;;;;;33.10;20.77;;;8.80;99.90;;;;;;4812081;29;20049;-80
2021/12/14 11:04:10;;;;;;;36.03;23.33;;;8.80;99.90;;;;;;4820621;29;20046;-80
2021/12/14 11:06:42;;;;;;;34.55;22.73;;;8.80;99.90;;;;;;4838886;29;20053;-80
2021/12/14 11:11:53;;;;;;;35.20;23.60;;;8.80;99.90;;;;;;4824239;29;20054;-80
2021/12/14 11:14:26;;;;;;;32.08;20.77;;;8.90;99.90;;;;;;4796746;29;20050;-80
2021/12/14 11:19:47;;;;;;;29.75;20.83;;;8.90;99.90;;;;;;4811443;29;20390;-79
2021/12/14 11:22:30;;;;;;;28.08;19.13;;;8.90;99.90;;;;;;4829224;29;20046;-78
2021/12/14 11:25:16;;;;;;;34.33;21.08;;;8.90;99.90;;;;;;4826835;29;20129;-82
2021/12/14 11:27:48;;;;;;;30.73;20.52;;;8.90;99.90;;;;;;4810990;29;20385;-81
2021/12/14 11:30:26;;;;;;;29.27;19.52;;;8.90;99.90;;;;;;4834411;29;20050;-82
2021/12/14 11:33:17;;;;;;;29.77;20.05;;;8.90;99.90;;;;;;4820262;29;20070;-81
2021/12/14 11:35:52;;;;;;;32.28;20.08;;;8.90;99.90;;;;;;4817588;29;20509;-81
2021/12/14 11:38:27;;;;;;;31.52;20.50;;;8.90;99.90;;;;;;4805328;29;20053;-81
2021/12/14 11:40:53;;;;;;;31.48;20.40;;;8.90;99.90;;;;;;4821374;29;20409;-81
2021/12/14 11:43:26;;;;;;;30.77;19.73;;;8.90;99.90;;;;;;4831260;29;20035;-81
2021/12/14 11:45:51;;;;;;;28.63;19.08;;;8.90;99.90;;;;;;4804065;29;20461;-81
2021/12/14 11:48:34;;;;;;;26.85;17.85;;;8.90;99.90;;;;;;4820274;29;20043;-81
2021/12/14 11:51:04;;;;;;;29.15;19.67;;;8.90;99.90;;;;;;4834930;29;20076;-81
2021/12/14 11:53:29;;;;;;;27.40;18.23;;;8.90;99.90;;;;;;4819186;29;20441;-82
2021/12/14 11:55:59;;;;;;;29.90;19.40;;;8.90;99.90;;;;;;4805007;29;20134;-81
2021/12/14 11:58:36;;;;;;;27.88;18.50;;;9.00;99.90;;;;;;4811308;29;20500;-81
2021/12/14 12:01:27;;;;;;;27.73;18.63;;;9.00;99.90;;;;;;4808147;29;20054;-81
2021/12/14 12:04:06;;;;;;;23.73;15.45;;;9.00;99.90;;;;;;4808201;29;20046;-81
2021/12/14 12:09:44;;;;;;;23.23;15.30;;;9.00;99.90;;;;;;4822424;29;20493;-81
2021/12/14 12:12:17;;;;;;;21.00;15.05;;;9.00;99.90;;;;;;4789395;29;20055;-81
2021/12/14 12:15:04;;;;;;;24.60;15.48;;;9.00;99.90;;;;;;4820940;29;20498;-82
2021/12/14 12:17:40;;;;;;;23.10;15.73;;;8.90;99.90;;;;;;4823058;29;20051;-81
2021/12/14 12:20:29;;;;;;;22.92;14.95;;;8.90;99.90;;;;;;4819718;29;20062;-82
2021/12/14 12:23:00;;;;;;;19.50;13.82;;;8.90;99.90;;;;;;4804574;29;20111;-80
2021/12/14 12:25:30;;;;;;;22.40;14.88;;;9.00;99.90;;;;;;4812650;29;20089;-81
2021/12/14 12:27:59;;;;;;;22.20;15.32;;;9.00;99.90;;;;;;4821845;29;20046;-81
2021/12/14 12:30:44;;;;;;;20.67;13.73;;;9.00;99.90;;;;;;4819698;29;20100;-81
2021/12/14 12:33:32;;;;;;;21.20;13.18;;;9.00;99.90;;;;;;4822502;29;20050;-82
2021/12/14 12:36:06;;;;;;;;;;;9.00;99.90;;;;;;4823172;29;20054;-81
2021/12/14 12:38:51;;;;;;;19.25;13.10;;;9.00;99.90;;;;;;4819304;29;19925;-81
2021/12/14 12:41:32;;;;;;;19.45;12.48;;;9.00;99.90;;;;;;4826270;29;20076;-83
2021/12/14 12:44:12;;;;;;;18.35;12.18;;;9.00;99.90;;;;;;4825016;29;20057;-81
2021/12/14 12:46:54;;;;;;;19.63;13.30;;;9.00;99.90;;;;;;4819960;29;20050;-82
2021/12/14 12:49:30;;;;;;;20.75;13.38;;;9.10;99.90;;;;;;4820572;29;20085;-82
2021/12/14 12:52:16;;;;;;;15.60;10.93;;;9.10;99.90;;;;;;4848306;29;20054;-81
2021/12/14 12:54:56;;;;;;;18.75;12.15;;;9.10;99.90;;;;;;4809641;29;20056;-81
2021/12/14 12:57:56;;;;;;;19.30;12.07;;;9.00;99.90;;;;;;4806840;29;20131;-82
2021/12/14 13:00:23;;;;;;;19.73;12.98;;;9.10;99.90;;;;;;4802234;29;20043;-82
2021/12/14 13:03:02;;;;;;;20.63;11.93;;;9.00;99.90;;;;;;4818387;29;20061;-82
2021/12/14 13:06:01;;;;;;;19.27;12.60;;;9.10;99.90;;;;;;4817562;29;20046;-82
2021/12/14 13:08:31;;;;;;;18.63;12.93;;;9.10;99.90;;;;;;4825566;29;20046;-82
2021/12/14 13:11:08;;;;;;;20.02;12.73;;;9.10;99.90;;;;;;4819244;29;20082;-82
2021/12/14 13:13:34;;;;;;;;;;;9.10;99.90;;;;;;4817779;29;20066;-82
2021/12/14 13:16:15;;;;;;;16.60;9.95;;;9.10;99.90;;;;;;4818568;29;19928;-82
2021/12/14 13:18:49;;;;;;;18.13;10.95;;;9.10;99.90;;;;;;4834660;29;20405;-76
2021/12/14 13:21:21;;;;;;;13.30;9.30;;;9.20;99.90;;;;;;4817014;29;20051;-76
2021/12/14 13:24:00;;;;;;;14.23;9.52;;;9.20;99.90;;;;;;4828708;29;20394;-76
2021/12/14 13:26:47;;;;;;;13.85;9.13;;;9.20;99.90;;;;;;4834786;29;20069;-76
2021/12/14 13:29:13;;;;;;;11.40;8.27;;;9.20;99.90;;;;;;4802243;29;20058;-76
2021/12/14 13:31:48;;;;;;;11.32;7.82;;;9.20;99.90;;;;;;4817265;29;20154;-76
2021/12/14 13:34:19;;;;;;;13.43;9.50;;;9.20;99.90;;;;;;4830089;29;20125;-77
2021/12/14 13:36:45;;;;;;;12.23;9.27;;;9.20;99.90;;;;;;4801783;29;20038;-77
2021/12/14 13:39:14;;;;;;;14.32;9.38;;;9.20;99.90;;;;;;4829619;29;20073;-76
2021/12/14 13:41:58;;;;;;;15.27;9.88;;;9.20;99.90;;;;;;4822077;29;20053;-76